createdAt,value
2023-05-21T00:15:49.471Z,16.30
2023-05-21T00:18:16.710Z,14.50
2023-05-21T00:20:43.716Z,17.10
2023-05-21T00:23:10.645Z,15.73
2023-05-21T00:25:37.735Z,16.87
2023-05-21T00:28:05.016Z,16.20
2023-05-21T00:30:31.972Z,16.10
2023-05-21T00:33:02.743Z,16.23
2023-05-21T00:35:30.366Z,16.73
2023-05-21T00:37:57.484Z,16.07
2023-05-21T00:40:24.695Z,15.67
2023-05-21T00:42:51.753Z,17.07
2023-05-21T00:45:18.847Z,16.30
2023-05-21T00:47:48.458Z,15.27
2023-05-21T00:50:16.305Z,16.17
2023-05-21T00:52:45.608Z,15.23
2023-05-21T00:55:12.822Z,15.30
2023-05-21T00:57:41.688Z,15.20
2023-05-21T01:00:10.745Z,15.47
2023-05-21T01:02:38.351Z,17.03
2023-05-21T01:05:07.051Z,15.90
2023-05-21T01:07:35.228Z,16.07
2023-05-21T01:10:06.262Z,16.73
2023-05-21T01:12:34.723Z,15.30
2023-05-21T01:15:05.953Z,17.20
2023-05-21T01:17:34.365Z,15.90
2023-05-21T01:20:01.979Z,17.43
2023-05-21T01:22:32.604Z,17.73
2023-05-21T01:25:02.805Z,18.20
2023-05-21T01:27:30.013Z,16.60
2023-05-21T01:29:57.529Z,17.13
2023-05-21T01:32:32.726Z,16.57
2023-05-21T01:35:08.451Z,17.00
2023-05-21T01:37:55.885Z,16.10
2023-05-21T01:40:48.120Z,16.67
2023-05-21T01:43:16.262Z,17.50
2023-05-21T01:45:45.069Z,16.37
2023-05-21T01:48:13.243Z,17.30
2023-05-21T01:50:43.057Z,17.57
2023-05-21T01:53:10.066Z,15.50
2023-05-21T01:55:39.719Z,17.33
2023-05-21T01:58:06.736Z,16.37
2023-05-21T02:00:34.657Z,17.70
2023-05-21T02:03:01.667Z,17.10
2023-05-21T02:05:28.715Z,19.00
2023-05-21T02:07:55.679Z,15.60
2023-05-21T02:10:23.018Z,18.27
2023-05-21T02:12:50.045Z,17.50
2023-05-21T02:15:20.115Z,17.60
2023-05-21T02:17:47.252Z,17.27
2023-05-21T02:20:14.571Z,18.17
2023-05-21T02:22:47.497Z,18.93
2023-05-21T02:25:16.831Z,18.53
2023-05-21T02:27:44.627Z,18.43
2023-05-21T02:30:13.897Z,20.30
2023-05-21T02:32:42.955Z,19.30
2023-05-21T02:35:12.735Z,19.13
2023-05-21T02:37:40.716Z,19.20
2023-05-21T02:40:10.005Z,19.07
2023-05-21T02:42:40.091Z,19.80
2023-05-21T02:45:09.729Z,18.93
2023-05-21T02:47:36.738Z,20.67
2023-05-21T02:50:07.913Z,20.10
2023-05-21T02:52:34.934Z,20.53
2023-05-21T02:55:01.917Z,20.90
2023-05-21T02:57:28.933Z,19.93
2023-05-21T02:59:56.021Z,20.73
2023-05-21T03:02:23.837Z,20.53
2023-05-21T03:04:51.542Z,21.87
2023-05-21T03:07:20.010Z,20.40
2023-05-21T03:09:47.244Z,21.17
2023-05-21T03:12:14.249Z,21.20
2023-05-21T03:14:44.132Z,21.23
2023-05-21T03:17:14.048Z,21.17
2023-05-21T03:19:42.154Z,23.43
2023-05-21T03:22:10.155Z,22.00
2023-05-21T03:24:41.323Z,22.47
2023-05-21T03:27:08.424Z,23.70
2023-05-21T03:29:36.160Z,22.13
2023-05-21T03:32:04.050Z,21.97
2023-05-21T03:34:31.229Z,21.00
2023-05-21T03:36:58.208Z,23.50
2023-05-21T03:39:25.983Z,22.47
2023-05-21T03:41:52.928Z,21.80
2023-05-21T03:44:19.854Z,22.10
2023-05-21T03:46:46.899Z,20.80
2023-05-21T03:49:14.720Z,22.40
2023-05-21T03:51:41.690Z,21.73
2023-05-21T03:54:08.696Z,21.03
2023-05-21T03:56:35.676Z,22.23
2023-05-21T03:59:02.657Z,21.13
2023-05-21T04:01:29.599Z,23.57
2023-05-21T04:03:56.739Z,20.97
2023-05-21T04:06:23.930Z,20.80
2023-05-21T04:08:52.168Z,22.57
2023-05-21T04:11:19.110Z,20.57
2023-05-21T04:13:46.225Z,21.77
2023-05-21T04:16:14.572Z,19.87
2023-05-21T04:18:43.553Z,21.10
2023-05-21T04:21:12.835Z,19.87
2023-05-21T04:23:40.230Z,19.33
2023-05-21T04:26:07.808Z,18.70
2023-05-21T04:28:35.422Z,19.23
2023-05-21T04:31:02.743Z,20.20
2023-05-21T04:33:30.423Z,18.43
2023-05-21T04:35:57.970Z,18.73
2023-05-21T04:38:26.021Z,17.50
2023-05-21T04:40:53.076Z,19.10
2023-05-21T04:43:26.287Z,17.93
2023-05-21T04:45:56.832Z,17.60
2023-05-21T04:48:24.934Z,18.10
2023-05-21T04:50:53.558Z,16.67
2023-05-21T04:53:20.852Z,18.30
2023-05-21T04:55:48.165Z,17.23
2023-05-21T04:58:18.032Z,16.83
2023-05-21T05:00:50.630Z,16.77
2023-05-21T05:03:18.044Z,16.67
2023-05-21T05:05:45.752Z,17.50
2023-05-21T05:08:14.716Z,17.30
2023-05-21T05:10:42.898Z,17.50
2023-05-21T05:13:09.965Z,16.63
2023-05-21T05:15:37.258Z,17.73
2023-05-21T05:18:04.494Z,16.27
2023-05-21T05:20:31.522Z,15.97
2023-05-21T05:22:58.511Z,16.63
2023-05-21T05:25:27.378Z,17.73
2023-05-21T05:27:54.346Z,17.03
2023-05-21T05:30:21.523Z,16.63
2023-05-21T05:32:48.546Z,16.23
2023-05-21T05:35:15.621Z,17.13
2023-05-21T05:37:42.610Z,16.77
2023-05-21T05:40:09.885Z,17.67
2023-05-21T05:42:36.822Z,17.13
2023-05-21T05:45:04.264Z,17.07
2023-05-21T05:47:31.452Z,19.10
2023-05-21T05:50:01.530Z,17.60
2023-05-21T05:52:28.478Z,16.00
2023-05-21T05:54:55.455Z,16.60
2023-05-21T05:57:22.424Z,17.13
2023-05-21T05:59:49.316Z,17.30
2023-05-21T06:02:16.296Z,16.13
2023-05-21T06:04:43.669Z,16.13
2023-05-21T06:07:10.862Z,15.40
2023-05-21T06:09:38.851Z,17.00
2023-05-21T06:12:12.194Z,17.10
2023-05-21T06:14:44.975Z,16.13
2023-05-21T06:17:12.511Z,17.07
2023-05-21T06:19:39.865Z,17.23
2023-05-21T06:22:06.857Z,16.30
2023-05-21T06:24:33.814Z,16.97
2023-05-21T06:27:00.917Z,16.70
2023-05-21T06:29:28.015Z,15.93
2023-05-21T06:31:54.998Z,15.90
2023-05-21T06:34:21.917Z,17.33
2023-05-21T06:36:49.108Z,16.77
2023-05-21T06:39:16.240Z,17.07
2023-05-21T06:41:43.197Z,16.93
2023-05-21T06:44:10.141Z,16.17
2023-05-21T06:46:37.125Z,16.00
2023-05-21T06:49:06.936Z,16.63
2023-05-21T06:51:33.973Z,15.80
2023-05-21T06:54:01.029Z,15.87
2023-05-21T06:56:28.082Z,16.57
2023-05-21T06:58:55.106Z,15.93
2023-05-21T07:01:22.757Z,15.40
2023-05-21T07:03:50.004Z,14.77
2023-05-21T07:06:16.991Z,14.67
2023-05-21T07:08:43.958Z,13.67
2023-05-21T07:11:10.957Z,13.10
2023-05-21T07:16:05.036Z,15.40
2023-05-21T07:18:31.930Z,12.10
2023-05-21T07:20:59.197Z,11.33
2023-05-21T07:23:26.172Z,11.27
2023-05-21T07:25:53.733Z,10.97
2023-05-21T07:28:20.849Z,9.30
2023-05-21T07:30:47.791Z,10.30
2023-05-21T07:33:14.786Z,10.33
2023-05-21T07:35:41.711Z,10.20
2023-05-21T07:38:08.707Z,9.00
2023-05-21T07:40:35.615Z,9.40
2023-05-21T07:43:02.684Z,8.90
2023-05-21T07:45:29.613Z,9.17
2023-05-21T07:47:56.644Z,8.00
2023-05-21T07:50:24.102Z,8.50
2023-05-21T07:52:51.236Z,8.57
2023-05-21T07:55:18.202Z,8.13
2023-05-21T07:57:46.219Z,8.07
2023-05-21T08:00:14.297Z,8.90
2023-05-21T08:02:41.385Z,8.30
2023-05-21T08:05:10.283Z,7.90
2023-05-21T08:07:38.594Z,7.90
2023-05-21T08:10:06.421Z,7.70
2023-05-21T08:12:34.192Z,8.57
2023-05-21T08:15:01.292Z,7.30
2023-05-21T08:17:31.096Z,8.43
2023-05-21T08:19:58.022Z,8.30
2023-05-21T08:22:24.925Z,7.80
2023-05-21T08:24:51.960Z,7.43
2023-05-21T08:27:19.137Z,7.50
2023-05-21T08:29:46.288Z,7.93
2023-05-21T08:32:13.295Z,7.30
2023-05-21T08:34:40.273Z,8.27
2023-05-21T08:37:07.250Z,7.13
2023-05-21T08:39:34.179Z,7.70
2023-05-21T08:42:25.601Z,7.13
2023-05-21T08:45:06.826Z,7.13
2023-05-21T08:47:36.845Z,6.47
2023-05-21T08:50:10.025Z,7.27
2023-05-21T08:52:37.390Z,7.30
2023-05-21T08:55:06.019Z,7.10
2023-05-21T08:57:33.356Z,6.80
2023-05-21T09:00:01.915Z,7.00
2023-05-21T09:02:34.306Z,8.00
2023-05-21T09:05:03.338Z,6.90
2023-05-21T09:07:36.872Z,7.27
2023-05-21T09:10:11.135Z,6.70
2023-05-21T09:12:38.087Z,7.43
2023-05-21T09:15:05.936Z,6.63
2023-05-21T09:17:33.037Z,7.80
2023-05-21T09:20:12.158Z,6.63
2023-05-21T09:22:50.028Z,7.10
2023-05-21T09:25:24.955Z,7.80
2023-05-21T09:27:51.898Z,7.30
2023-05-21T09:30:21.856Z,7.33
2023-05-21T09:32:58.107Z,6.80
2023-05-21T09:35:25.491Z,7.27
2023-05-21T09:37:54.040Z,7.13
2023-05-21T09:40:23.531Z,7.13
2023-05-21T09:42:53.596Z,6.53
2023-05-21T09:45:23.466Z,7.10
2023-05-21T09:47:53.571Z,6.30
2023-05-21T09:50:24.332Z,5.97
2023-05-21T09:52:55.456Z,5.37
2023-05-21T09:55:26.998Z,5.60
2023-05-21T09:57:53.949Z,6.23
2023-05-21T10:00:27.584Z,5.80
2023-05-21T10:03:02.334Z,5.70
2023-05-21T10:05:31.203Z,5.60
2023-05-21T10:08:02.954Z,5.27
2023-05-21T10:10:31.889Z,5.63
2023-05-21T10:13:08.627Z,5.63
2023-05-21T10:15:43.131Z,5.40
2023-05-21T10:18:12.373Z,5.10
2023-05-21T10:20:39.990Z,4.77
2023-05-21T10:23:07.836Z,4.60
2023-05-21T10:25:36.243Z,4.67
2023-05-21T10:28:03.563Z,4.60
2023-05-21T10:30:31.102Z,5.50
2023-05-21T10:32:59.837Z,4.43
2023-05-21T10:35:28.705Z,5.47
2023-05-21T10:37:57.624Z,6.00
2023-05-21T10:40:24.565Z,5.63
2023-05-21T10:43:58.128Z,5.37
2023-05-21T10:47:00.772Z,5.90
2023-05-21T10:49:39.178Z,5.20
2023-05-21T10:52:35.126Z,5.60
2023-05-21T10:55:23.421Z,6.10
2023-05-21T10:58:29.892Z,5.90
2023-05-21T11:00:59.500Z,5.20
2023-05-21T11:03:26.764Z,6.00
2023-05-21T11:05:57.715Z,5.27
2023-05-21T11:08:36.248Z,5.17
2023-05-21T11:11:04.608Z,5.80
2023-05-21T11:13:51.517Z,5.40
2023-05-21T11:16:18.510Z,5.50
2023-05-21T11:18:45.966Z,5.50
2023-05-21T11:21:17.003Z,5.10
2023-05-21T11:24:03.563Z,5.80
2023-05-21T11:26:50.447Z,5.40
2023-05-21T11:29:18.076Z,4.67
2023-05-21T11:32:02.710Z,5.17
2023-05-21T11:34:39.378Z,4.87
2023-05-21T11:37:18.807Z,5.17
2023-05-21T11:39:47.098Z,5.50
2023-05-21T11:42:39.553Z,5.23
2023-05-21T11:45:07.224Z,5.83
2023-05-21T11:47:34.245Z,5.57
2023-05-21T11:50:03.452Z,4.70
2023-05-21T11:52:31.800Z,5.40
2023-05-21T11:54:59.915Z,5.93
2023-05-21T11:57:33.018Z,4.40
2023-05-21T12:00:09.642Z,5.40
2023-05-21T12:02:36.596Z,5.03
2023-05-21T12:05:03.621Z,4.80
2023-05-21T12:07:31.242Z,4.87
2023-05-21T12:09:59.011Z,5.47
2023-05-21T12:12:33.054Z,5.63
2023-05-21T12:15:10.361Z,5.63
2023-05-21T12:17:37.525Z,5.50
2023-05-21T12:20:08.296Z,5.47
2023-05-21T12:22:35.264Z,5.40
2023-05-21T12:25:04.319Z,5.03
2023-05-21T12:27:32.847Z,5.67
2023-05-21T12:30:00.444Z,6.80
2023-05-21T12:32:29.258Z,6.53
2023-05-21T12:34:56.667Z,5.33
2023-05-21T12:37:35.526Z,5.50
2023-05-21T12:40:05.153Z,6.10
2023-05-21T12:42:36.529Z,5.23
2023-05-21T12:45:08.535Z,5.47
2023-05-21T12:47:36.226Z,6.20
2023-05-21T12:50:09.327Z,5.03
2023-05-21T12:52:36.254Z,4.80
2023-05-21T12:55:05.541Z,5.43
2023-05-21T12:57:38.964Z,5.43
2023-05-21T13:00:07.910Z,5.77
2023-05-21T13:02:42.704Z,5.17
2023-05-21T13:05:20.082Z,5.57
2023-05-21T13:07:47.849Z,5.20
2023-05-21T13:10:16.799Z,6.00
2023-05-21T13:12:44.995Z,4.80
2023-05-21T13:15:12.460Z,4.97
2023-05-21T13:17:39.411Z,5.50
2023-05-21T13:20:18.264Z,6.07
2023-05-21T13:22:47.927Z,5.50
2023-05-21T13:25:21.351Z,5.10
2023-05-21T13:27:49.947Z,5.20
2023-05-21T13:30:17.616Z,6.80
2023-05-21T13:32:44.969Z,5.07
2023-05-21T13:35:12.656Z,5.10
2023-05-21T13:37:40.905Z,5.37
2023-05-21T13:40:16.663Z,5.50
2023-05-21T13:42:46.034Z,5.70
2023-05-21T13:45:16.614Z,5.27
2023-05-21T13:47:44.933Z,5.80
2023-05-21T13:50:12.625Z,5.93
2023-05-21T13:52:39.784Z,5.93
2023-05-21T13:55:07.360Z,5.53
2023-05-21T13:57:34.435Z,4.87
2023-05-21T14:00:01.660Z,5.30
2023-05-21T14:02:28.966Z,5.30
2023-05-21T14:04:56.015Z,4.90
2023-05-21T14:07:23.030Z,5.47
2023-05-21T14:09:50.140Z,5.20
2023-05-21T14:12:17.200Z,5.80
2023-05-21T14:14:44.239Z,4.80
2023-05-21T14:17:11.193Z,4.70
2023-05-21T14:19:38.189Z,5.30
2023-05-21T14:22:05.481Z,5.00
2023-05-21T14:24:32.390Z,5.83
2023-05-21T14:26:59.354Z,5.53
2023-05-21T14:29:26.344Z,4.93
2023-05-21T14:31:53.323Z,5.50
2023-05-21T14:34:20.253Z,5.30
2023-05-21T14:36:47.167Z,5.43
2023-05-21T14:39:14.161Z,5.50
2023-05-21T14:41:41.227Z,5.43
2023-05-21T14:44:08.309Z,5.33
2023-05-21T14:46:35.651Z,4.50
2023-05-21T14:49:03.715Z,4.53
2023-05-21T14:51:31.598Z,5.10
2023-05-21T14:53:58.739Z,4.37
2023-05-21T14:56:27.610Z,5.43
2023-05-21T14:58:55.014Z,4.80
2023-05-21T15:01:22.077Z,4.20
2023-05-21T15:03:49.324Z,4.60
2023-05-21T15:06:17.038Z,5.40
2023-05-21T15:08:43.993Z,5.17
2023-05-21T15:11:11.525Z,4.10
2023-05-21T15:13:39.068Z,5.03
2023-05-21T15:16:06.494Z,4.70
2023-05-21T15:18:33.648Z,5.27
2023-05-21T15:21:00.601Z,4.50
2023-05-21T15:23:27.610Z,4.60
2023-05-21T15:25:54.526Z,4.80
2023-05-21T15:28:22.933Z,4.80
2023-05-21T15:30:49.955Z,4.40
2023-05-21T15:33:17.057Z,5.10
2023-05-21T15:35:44.322Z,4.10
2023-05-21T15:38:12.575Z,4.30
2023-05-21T15:40:41.892Z,4.97
2023-05-21T15:43:08.960Z,5.53
2023-05-21T15:45:36.607Z,4.60
2023-05-21T15:48:03.794Z,5.10
2023-05-21T15:50:30.712Z,4.90
2023-05-21T15:52:57.602Z,4.57
2023-05-21T15:55:24.514Z,4.60
2023-05-21T15:57:51.446Z,4.93
2023-05-21T16:00:18.589Z,4.30
2023-05-21T16:02:45.664Z,4.80
2023-05-21T16:05:12.787Z,4.57
2023-05-21T16:07:39.662Z,4.17
2023-05-21T16:10:10.571Z,5.00
2023-05-21T16:12:38.132Z,4.63
2023-05-21T16:15:06.290Z,5.00
2023-05-21T16:17:33.243Z,4.80
2023-05-21T16:20:00.276Z,4.57
2023-05-21T16:22:27.282Z,4.30
2023-05-21T16:24:54.989Z,3.70
2023-05-21T16:27:21.912Z,4.10
2023-05-21T16:29:48.813Z,4.23
2023-05-21T16:32:15.944Z,3.80
2023-05-21T16:34:43.044Z,4.43
2023-05-21T16:37:10.097Z,4.33
2023-05-21T16:39:37.209Z,3.77
2023-05-21T16:42:04.373Z,3.60
2023-05-21T16:44:32.017Z,4.33
2023-05-21T16:47:00.202Z,4.40
2023-05-21T16:49:27.825Z,4.10
2023-05-21T16:51:54.967Z,4.20
2023-05-21T16:54:22.197Z,4.53
2023-05-21T16:56:49.120Z,4.07
2023-05-21T16:59:16.821Z,4.57
2023-05-21T17:01:43.872Z,3.53
2023-05-21T17:04:11.083Z,4.80
2023-05-21T17:06:37.986Z,4.57
2023-05-21T17:09:04.954Z,5.30
2023-05-21T17:11:31.932Z,4.17
2023-05-21T17:13:58.854Z,5.27
2023-05-21T17:16:25.983Z,5.90
2023-05-21T17:18:53.072Z,4.70
2023-05-21T17:21:20.025Z,4.23
2023-05-21T17:23:46.953Z,4.27
2023-05-21T17:26:14.010Z,4.00
2023-05-21T17:28:41.033Z,3.97
2023-05-21T17:31:09.484Z,4.67
2023-05-21T17:33:37.757Z,4.90
2023-05-21T17:36:05.006Z,5.60
2023-05-21T17:38:31.940Z,4.30
2023-05-21T17:40:59.347Z,4.43
2023-05-21T17:43:31.793Z,4.00
2023-05-21T17:45:58.805Z,4.30
2023-05-21T17:48:26.093Z,4.40
2023-05-21T17:50:53.112Z,4.43
2023-05-21T17:53:20.099Z,4.60
2023-05-21T17:55:47.133Z,5.37
2023-05-21T17:58:14.099Z,4.83
2023-05-21T18:00:41.290Z,4.60
2023-05-21T18:03:08.330Z,4.00
2023-05-21T18:05:35.578Z,4.53
2023-05-21T18:08:02.891Z,4.23
2023-05-21T18:10:30.655Z,4.73
2023-05-21T18:12:57.591Z,4.97
2023-05-21T18:15:24.468Z,4.57
2023-05-21T18:17:51.511Z,4.40
2023-05-21T18:20:18.572Z,4.20
2023-05-21T18:22:45.641Z,5.07
2023-05-21T18:25:12.534Z,4.33
2023-05-21T18:27:39.530Z,3.53
2023-05-21T18:30:08.146Z,4.37
2023-05-21T18:32:38.476Z,4.80
2023-05-21T18:35:10.985Z,4.47
2023-05-21T18:37:41.548Z,4.80
2023-05-21T18:40:09.238Z,4.50
2023-05-21T18:42:36.277Z,5.00
2023-05-21T18:45:08.438Z,5.43
2023-05-21T18:47:35.993Z,5.17
2023-05-21T18:50:03.021Z,4.40
2023-05-21T18:52:29.936Z,5.70
2023-05-21T18:54:56.882Z,4.57
2023-05-21T18:57:23.982Z,4.27
2023-05-21T18:59:51.001Z,4.90
2023-05-21T19:02:18.120Z,4.90
2023-05-21T19:04:45.620Z,4.17
2023-05-21T19:07:12.545Z,3.93
2023-05-21T19:09:39.465Z,4.50
2023-05-21T19:12:07.137Z,5.17
2023-05-21T19:14:34.053Z,4.90
2023-05-21T19:17:01.387Z,5.63
2023-05-21T19:19:28.556Z,5.27
2023-05-21T19:21:55.635Z,4.17
2023-05-21T19:24:22.610Z,5.07
2023-05-21T19:26:49.602Z,4.83
2023-05-21T19:29:16.599Z,4.93
2023-05-21T19:31:43.602Z,4.70
2023-05-21T19:34:11.035Z,4.30
2023-05-21T19:36:51.499Z,6.00
2023-05-21T19:39:19.697Z,4.93
2023-05-21T19:41:46.690Z,3.83
2023-05-21T19:44:13.719Z,3.90
2023-05-21T19:46:40.644Z,4.57
2023-05-21T19:49:10.413Z,4.80
2023-05-21T19:51:37.426Z,4.60
2023-05-21T19:54:04.414Z,4.03
2023-05-21T19:56:31.302Z,4.67
2023-05-21T19:58:58.302Z,4.43
2023-05-21T20:01:25.441Z,4.57
2023-05-21T20:03:52.489Z,4.50
2023-05-21T20:06:20.580Z,4.27
2023-05-21T20:08:47.956Z,4.30
2023-05-21T20:11:15.095Z,4.33
2023-05-21T20:13:42.367Z,4.30
2023-05-21T20:16:10.494Z,4.30
2023-05-21T20:18:37.550Z,4.47
2023-05-21T20:21:06.171Z,3.80
2023-05-21T20:23:33.127Z,4.50
2023-05-21T20:26:00.055Z,4.43
2023-05-21T20:28:27.058Z,4.73
2023-05-21T20:30:59.180Z,4.53
2023-05-21T20:33:27.892Z,5.10
2023-05-21T20:35:54.794Z,4.57
2023-05-21T20:38:22.051Z,4.50
2023-05-21T20:40:48.987Z,4.50
2023-05-21T20:43:16.008Z,4.50
2023-05-21T20:45:45.459Z,4.00
2023-05-21T20:48:14.158Z,4.50
2023-05-21T20:50:44.190Z,4.40
2023-05-21T20:53:15.747Z,4.90
2023-05-21T20:55:44.615Z,5.30
2023-05-21T20:58:12.279Z,4.60
2023-05-21T21:00:41.857Z,5.27
2023-05-21T21:03:11.421Z,4.30
2023-05-21T21:05:39.325Z,4.20
2023-05-21T21:08:08.195Z,5.13
2023-05-21T21:10:36.220Z,4.77
2023-05-21T21:13:03.595Z,4.87
2023-05-21T21:15:30.625Z,4.47
2023-05-21T21:17:57.690Z,4.57
2023-05-21T21:20:24.729Z,4.93
2023-05-21T21:22:51.665Z,4.40
2023-05-21T21:25:18.595Z,5.10
2023-05-21T21:27:45.484Z,5.17
2023-05-21T21:30:12.873Z,4.90
2023-05-21T21:32:40.728Z,4.63
2023-05-21T21:35:07.978Z,4.90
2023-05-21T21:37:35.112Z,4.90
2023-05-21T21:40:02.030Z,4.87
2023-05-21T21:42:28.989Z,4.33
2023-05-21T21:44:55.926Z,4.40
2023-05-21T21:47:22.894Z,5.20
2023-05-21T21:49:50.019Z,4.70
2023-05-21T21:52:18.854Z,5.27
2023-05-21T21:54:46.073Z,4.83
2023-05-21T21:57:12.973Z,4.70
2023-05-21T21:59:39.890Z,5.50
2023-05-21T22:02:06.933Z,5.20
2023-05-21T22:04:33.841Z,4.97
2023-05-21T22:07:05.067Z,4.50
2023-05-21T22:09:32.025Z,5.10
2023-05-21T22:11:58.972Z,4.73
2023-05-21T22:14:25.860Z,4.50
2023-05-21T22:16:53.246Z,3.80
2023-05-21T22:19:22.035Z,4.93
2023-05-21T22:21:49.355Z,4.30
2023-05-21T22:24:30.992Z,4.27
2023-05-21T22:26:58.755Z,4.33
2023-05-21T22:29:25.734Z,4.20
2023-05-21T22:31:52.720Z,4.70
2023-05-21T22:34:19.826Z,4.47
2023-05-21T22:36:47.323Z,3.80
2023-05-21T22:39:14.364Z,3.50
2023-05-21T22:41:42.037Z,4.30
2023-05-21T22:44:08.999Z,4.10
2023-05-21T22:46:35.936Z,4.43
2023-05-21T22:49:03.232Z,4.37
2023-05-21T22:51:34.384Z,4.60
2023-05-21T22:54:01.758Z,4.23
2023-05-21T22:56:29.011Z,4.60
2023-05-21T22:58:56.747Z,3.80
2023-05-21T23:01:23.958Z,4.30
2023-05-21T23:03:51.894Z,3.63
2023-05-21T23:06:18.989Z,3.60
2023-05-21T23:08:46.417Z,4.17
2023-05-21T23:11:13.433Z,4.00
2023-05-21T23:13:40.862Z,3.90
2023-05-21T23:16:07.978Z,5.10
2023-05-21T23:18:35.789Z,4.43
2023-05-21T23:21:02.865Z,3.50
2023-05-21T23:23:30.586Z,4.30
2023-05-21T23:25:59.050Z,4.00
2023-05-21T23:28:26.633Z,4.37
2023-05-21T23:30:53.801Z,4.20
2023-05-21T23:33:21.632Z,4.60
2023-05-21T23:35:49.103Z,3.90
2023-05-21T23:38:16.168Z,3.70
2023-05-21T23:40:43.463Z,4.27
2023-05-21T23:43:10.747Z,5.00
2023-05-21T23:45:38.048Z,4.17
2023-05-21T23:48:05.481Z,4.33
2023-05-21T23:50:32.621Z,4.23
2023-05-21T23:53:00.492Z,3.90
2023-05-21T23:55:27.459Z,4.43
2023-05-21T23:57:54.566Z,3.97
